Time;durP1;ratioP1;P1;durP2;ratioP2;P2;SDS_P1;SDS_P2;PMS_P1;PMS_P2;Temp;Humidity;BMP_temperature;BMP_pressure;BME280_temperature;BME280_humidity;BME280_pressure;Samples;Min_cycle;Max_cycle;Signal;HPM_P1;HPM_P2
2021/10/29 00:01:06;;;;;;;12.00;8.25;;;;;;;9.94;96.22;100925.75;5012505;28;20038;-79
2021/10/29 00:03:31;;;;;;;11.98;8.48;;;;;;;9.91;96.13;100928.34;5012712;28;20026;-77
2021/10/29 00:05:57;;;;;;;15.23;7.65;;;;;;;9.88;96.15;100923.91;5024191;28;20018;-79
2021/10/29 00:08:23;;;;;;;13.52;7.70;;;;;;;9.86;96.15;100924.72;5000245;28;20037;-79
2021/10/29 00:10:48;;;;;;;13.98;8.52;;;;;;;9.86;96.66;100922.09;5014028;28;20041;-78
2021/10/29 00:13:14;;;;;;;16.25;8.80;;;;;;;9.86;96.44;100920.38;5012290;28;20030;-78
2021/10/29 00:15:40;;;;;;;11.68;7.93;;;;;;;9.84;96.08;100918.56;5016836;28;20071;-80
2021/10/29 00:18:05;;;;;;;11.93;8.55;;;;;;;9.82;96.27;100923.78;5017426;28;20022;-78
2021/10/29 00:20:31;;;;;;;15.20;8.57;;;;;;;9.81;96.20;100924.63;5015907;28;20041;-79
2021/10/29 00:22:57;;;;;;;13.02;8.65;;;;;;;9.78;96.53;100921.97;5017021;28;20026;-77
2021/10/29 00:25:22;;;;;;;11.95;7.68;;;;;;;9.78;96.41;100916.69;5017116;28;20592;-78
2021/10/29 00:27:48;;;;;;;17.27;9.05;;;;;;;9.77;96.74;100915.78;5017620;28;20042;-77
2021/10/29 00:30:14;;;;;;;11.20;8.23;;;;;;;9.76;96.77;100918.38;5014814;28;20489;-79
2021/10/29 00:32:39;;;;;;;15.18;8.25;;;;;;;9.77;97.16;100913.16;5016579;28;20029;-78
2021/10/29 00:35:05;;;;;;;19.52;8.90;;;;;;;9.77;96.99;100909.66;5017325;28;20592;-77
2021/10/29 00:37:37;;;;;;;12.82;8.10;;;;;;;9.77;96.74;100910.53;5016299;28;20084;-79
2021/10/29 00:40:04;;;;;;;10.18;7.93;;;;;;;9.77;96.99;100910.53;5016392;28;20109;-77
2021/10/29 00:42:30;;;;;;;12.32;8.32;;;;;;;9.78;96.56;100911.44;5016506;28;20033;-77
2021/10/29 00:44:55;;;;;;;12.10;7.55;;;;;;;9.78;96.92;100914.06;5016031;28;20477;-78
2021/10/29 00:47:21;;;;;;;12.70;8.95;;;;;;;9.78;96.68;100914.94;5016198;28;20073;-77
2021/10/29 00:49:46;;;;;;;13.10;8.15;;;;;;;9.76;96.68;100908.75;5016352;28;20060;-78
2021/10/29 00:52:12;;;;;;;9.65;7.63;;;;;;;9.76;96.36;100908.75;5017110;28;20094;-77
2021/10/29 00:54:37;;;;;;;11.55;8.05;;;;;;;9.76;96.54;100908.75;5022957;28;20029;-78
2021/10/29 00:57:03;;;;;;;9.10;6.95;;;;;;;9.78;96.26;100907.06;5016489;28;20049;-79
2021/10/29 00:59:28;;;;;;;11.02;7.22;;;;;;;9.81;96.21;100900.97;5007763;28;20042;-79
2021/10/29 01:01:54;;;;;;;9.95;7.20;;;;;;;9.83;96.78;100904.50;5015561;28;20189;-78
2021/10/29 01:04:19;;;;;;;12.50;7.50;;;;;;;9.86;95.84;100896.72;5016154;28;20449;-77
2021/10/29 01:06:45;;;;;;;10.65;7.15;;;;;;;9.91;95.33;100899.41;5014931;28;20034;-77
2021/10/29 01:09:11;;;;;;;13.75;7.80;;;;;;;9.94;95.42;100897.75;5015124;28;20029;-79
2021/10/29 01:11:38;;;;;;;21.10;7.30;;;;;;;10.01;94.79;100897.84;5016343;28;20034;-78
2021/10/29 01:14:04;;;;;;;9.32;6.82;;;;;;;10.07;94.75;100893.59;5015594;28;20385;-79
2021/10/29 01:16:29;;;;;;;12.60;6.80;;;;;;;10.17;94.22;100888.53;5016466;28;20030;-79
2021/10/29 01:18:54;;;;;;;9.40;6.85;;;;;;;10.25;93.39;100887.81;5020974;28;20026;-79
2021/10/29 01:21:20;;;;;;;11.50;7.05;;;;;;;10.32;92.85;100878.28;5024312;28;20029;-78
2021/10/29 01:23:45;;;;;;;12.30;7.05;;;;;;;10.35;92.83;100888.91;5016667;28;20033;-77
2021/10/29 01:26:13;;;;;;;9.45;6.32;;;;;;;10.37;92.38;100881.91;5015610;28;20068;-78
2021/10/29 01:28:40;;;;;;;12.02;6.60;;;;;;;10.41;92.18;100878.47;5023712;28;20041;-79
2021/10/29 01:31:06;;;;;;;9.88;6.18;;;;;;;10.46;91.69;100871.56;5014501;28;20084;-78
2021/10/29 01:33:32;;;;;;;11.40;6.35;;;;;;;10.50;91.45;100866.34;5016545;28;20026;-78
2021/10/29 01:35:58;;;;;;;12.35;6.28;;;;;;;10.54;90.80;100858.56;5016714;28;20037;-78
2021/10/29 01:38:35;;;;;;;11.35;6.18;;;;;;;10.54;91.03;100857.66;5018305;28;20033;-76
2021/10/29 01:41:02;;;;;;;13.02;6.20;;;;;;;10.54;90.91;100862.91;5016071;28;20366;-79
2021/10/29 01:43:27;;;;;;;9.23;6.35;;;;;;;10.57;90.64;100857.72;5016590;28;20041;-78
2021/10/29 01:45:54;;;;;;;11.15;6.28;;;;;;;10.57;90.66;100855.09;5036779;28;20025;-79
2021/10/29 01:48:19;;;;;;;11.55;6.65;;;;;;;10.58;90.55;100854.22;5018180;28;20022;-78
2021/10/29 01:50:45;;;;;;;10.52;6.60;;;;;;;10.61;90.64;100844.63;5022386;28;20029;-79
2021/10/29 01:53:10;;;;;;;9.43;6.07;;;;;;;10.62;90.48;100834.97;5019054;28;20092;-79
2021/10/29 01:55:36;;;;;;;8.02;5.90;;;;;;;10.65;90.12;100840.31;4995618;28;20037;-78
2021/10/29 01:58:02;;;;;;;10.45;6.65;;;;;;;10.69;89.86;100836.88;5009391;28;20066;-78
2021/10/29 02:00:27;;;;;;;10.43;6.50;;;;;;;10.71;89.58;100829.88;5026250;28;20033;-78
2021/10/29 02:02:52;;;;;;;10.30;6.20;;;;;;;10.71;89.18;100824.59;5014842;28;20056;-77
2021/10/29 02:05:18;;;;;;;9.55;6.75;;;;;;;10.70;89.61;100828.13;5016461;28;20051;-78
2021/10/29 02:07:43;;;;;;;10.23;5.78;;;;;;;10.69;89.37;100818.44;5016644;28;20509;-79
2021/10/29 02:10:09;;;;;;;10.90;6.07;;;;;;;10.71;89.25;100811.44;5015496;28;20493;-79
2021/10/29 02:12:34;;;;;;;12.43;6.72;;;;;;;10.72;89.15;100813.22;5016640;28;20037;-78
2021/10/29 02:14:59;;;;;;;11.20;6.40;;;;;;;10.72;89.10;100817.63;4995197;28;20054;-78
2021/10/29 02:17:25;;;;;;;13.63;6.70;;;;;;;10.72;88.91;100805.31;5013849;28;20030;-78
2021/10/29 02:19:52;;;;;;;11.98;6.60;;;;;;;10.74;88.72;100806.25;5016644;28;20109;-79
2021/10/29 02:22:17;;;;;;;8.57;5.70;;;;;;;10.73;88.95;100803.56;5015313;28;20109;-77
2021/10/29 02:24:42;;;;;;;10.68;6.47;;;;;;;10.73;88.86;100800.94;5018136;28;20049;-79
2021/10/29 02:27:08;;;;;;;8.38;6.53;;;;;;;10.74;88.67;100793.09;5014299;28;20053;-78
2021/10/29 02:29:35;;;;;;;9.32;6.53;;;;;;;10.78;88.63;100800.16;5015177;28;20042;-78
2021/10/29 02:32:01;;;;;;;10.70;6.22;;;;;;;10.77;88.49;100793.13;5015468;28;20033;-78
2021/10/29 02:34:26;;;;;;;8.13;6.25;;;;;;;10.77;88.47;100795.75;5014573;28;20033;-78
2021/10/29 02:36:52;;;;;;;9.35;6.03;;;;;;;10.80;88.10;100798.44;5013603;28;20548;-78
2021/10/29 02:39:18;;;;;;;9.02;5.95;;;;;;;10.77;88.30;100798.38;5014780;28;20056;-78
2021/10/29 02:41:43;;;;;;;8.73;5.55;;;;;;;10.79;88.01;100801.91;5014700;28;20111;-77
2021/10/29 02:44:09;;;;;;;10.40;6.47;;;;;;;10.77;87.98;100798.38;5014138;28;20026;-79
2021/10/29 02:46:36;;;;;;;12.48;6.60;;;;;;;10.77;88.15;100795.75;5014906;28;20030;-79
2021/10/29 02:49:03;;;;;;;17.23;6.68;;;;;;;10.73;88.37;100796.56;5011542;28;20029;-79
2021/10/29 02:51:30;;;;;;;7.53;6.10;;;;;;;10.75;88.32;100794.84;5013462;28;20109;-77
2021/10/29 02:53:56;;;;;;;9.63;5.95;;;;;;;10.74;88.22;100793.09;5012818;28;20014;-79
2021/10/29 02:56:21;;;;;;;8.85;5.65;;;;;;;10.74;88.19;100785.19;5013239;28;20069;-78
2021/10/29 02:58:46;;;;;;;12.70;6.72;;;;;;;10.74;88.33;100786.91;5013569;28;20045;-76
2021/10/29 03:01:12;;;;;;;11.25;5.90;;;;;;;10.70;88.21;100785.09;5013078;28;20033;-78
2021/10/29 03:03:37;;;;;;;9.75;6.05;;;;;;;10.70;88.56;100791.28;5013194;28;20030;-78
2021/10/29 03:06:03;;;;;;;11.23;5.70;;;;;;;10.70;88.60;100774.56;5013780;28;20033;-79
2021/10/29 03:08:28;;;;;;;14.88;6.45;;;;;;;10.69;88.74;100783.31;5013941;28;20079;-78
2021/10/29 03:10:54;;;;;;;9.65;6.10;;;;;;;10.66;88.66;100771.00;5012999;28;20031;-78
2021/10/29 03:13:20;;;;;;;12.77;6.05;;;;;;;10.63;88.99;100778.88;5014505;28;20064;-79
2021/10/29 03:15:48;;;;;;;9.10;6.15;;;;;;;10.65;88.73;100766.63;5015106;28;20057;-78
2021/10/29 03:18:14;;;;;;;10.25;6.18;;;;;;;10.65;88.55;100766.63;5013840;28;20029;-78
2021/10/29 03:20:39;;;;;;;8.75;6.10;;;;;;;10.63;88.63;100771.88;5013777;28;20551;-78
2021/10/29 03:23:05;;;;;;;14.57;6.70;;;;;;;10.65;88.72;100771.91;5013863;28;20089;-78
2021/10/29 03:25:30;;;;;;;14.55;6.18;;;;;;;10.70;88.41;100764.97;5014202;28;20037;-78
2021/10/29 03:27:55;;;;;;;10.95;5.75;;;;;;;10.71;88.22;100771.97;5014983;28;20053;-77
2021/10/29 03:30:21;;;;;;;9.07;5.93;;;;;;;10.72;88.27;100762.34;5014268;28;20535;-78
2021/10/29 03:32:46;;;;;;;10.00;5.97;;;;;;;10.72;88.18;100765.84;5013636;28;20124;-78
2021/10/29 03:35:12;;;;;;;10.88;6.13;;;;;;;10.73;88.27;100759.72;5013440;28;20443;-78
2021/10/29 03:37:52;;;;;;;12.10;6.15;;;;;;;10.72;87.81;100755.31;5012575;28;20076;-79
2021/10/29 03:43:15;;;;;;;9.57;5.88;;;;;;;10.76;87.92;100756.25;5014057;28;20049;-79
2021/10/29 03:45:50;;;;;;;10.15;6.45;;;;;;;10.73;88.23;100753.56;5012682;28;20394;-79
2021/10/29 03:48:18;;;;;;;9.20;5.72;;;;;;;10.75;88.18;100754.47;5013027;28;20061;-78
2021/10/29 03:51:00;;;;;;;13.02;6.63;;;;;;;10.71;88.22;100750.03;5016228;28;20041;-78
2021/10/29 03:55:57;;;;;;;12.32;6.53;;;;;;;10.62;88.52;100767.47;5017540;28;20041;-79
2021/10/29 03:58:23;;;;;;;10.05;6.35;;;;;;;10.61;88.95;100754.28;5018038;28;20026;-77
2021/10/29 04:00:48;;;;;;;9.68;6.00;;;;;;;10.62;88.87;100761.28;5017997;28;20117;-78
2021/10/29 04:03:14;;;;;;;9.65;6.75;;;;;;;10.65;88.54;100756.09;5016805;28;20338;-78
2021/10/29 04:05:40;;;;;;;9.98;5.95;;;;;;;10.65;88.46;100750.84;5017376;28;20041;-77
2021/10/29 04:08:05;;;;;;;14.23;6.43;;;;;;;10.64;89.08;100759.59;5017380;28;20037;-78
2021/10/29 04:10:30;;;;;;;10.85;6.45;;;;;;;10.65;88.66;100756.09;5016731;28;20461;-77
2021/10/29 04:13:02;;;;;;;9.68;6.25;;;;;;;10.64;88.88;100762.22;5016854;28;20056;-78
2021/10/29 04:15:28;;;;;;;14.18;6.50;;;;;;;10.61;88.60;100755.16;5016310;28;20506;-78
2021/10/29 04:17:55;;;;;;;9.88;5.72;;;;;;;10.60;88.89;100755.16;5016907;28;20052;-78
2021/10/29 04:20:21;;;;;;;10.63;6.30;;;;;;;10.58;88.97;100751.59;5015766;28;20026;-79
2021/10/29 04:22:46;;;;;;;8.32;5.38;;;;;;;10.57;89.18;100749.84;5017535;28;20030;-78
2021/10/29 04:25:12;;;;;;;11.23;7.03;;;;;;;10.55;89.04;100748.91;5016635;28;20394;-79
2021/10/29 04:27:44;;;;;;;9.30;5.68;;;;;;;10.57;89.30;100744.59;5022628;28;20068;-78
2021/10/29 04:30:14;;;;;;;9.18;6.18;;;;;;;10.58;89.25;100744.59;5017153;28;20469;-79
2021/10/29 04:32:39;;;;;;;9.57;6.57;;;;;;;10.56;89.38;100735.78;5007444;28;20100;-79
2021/10/29 04:35:05;;;;;;;9.38;6.00;;;;;;;10.55;89.26;100738.41;5015703;28;20466;-79
2021/10/29 04:37:30;;;;;;;11.23;6.13;;;;;;;10.55;89.68;100735.75;5016542;28;20022;-77
2021/10/29 04:39:56;;;;;;;8.35;6.10;;;;;;;10.58;89.12;100727.91;5016356;28;20022;-78
2021/10/29 04:42:21;;;;;;;10.80;6.43;;;;;;;10.56;89.37;100727.88;5015624;28;20030;-76
2021/10/29 04:44:47;;;;;;;8.13;5.82;;;;;;;10.57;89.33;100726.16;5016290;28;20025;-78
2021/10/29 04:47:12;;;;;;;13.57;6.30;;;;;;;10.54;89.40;100726.09;5016651;28;20030;-78
2021/10/29 04:49:38;;;;;;;13.90;6.40;;;;;;;10.59;89.27;100719.16;5016735;28;20030;-79
2021/10/29 04:52:03;;;;;;;8.65;6.60;;;;;;;10.56;89.50;100714.72;5015527;28;20377;-78
2021/10/29 04:54:29;;;;;;;12.02;5.82;;;;;;;10.54;89.64;100705.03;5027061;28;20537;-77
2021/10/29 04:56:54;;;;;;;9.90;6.18;;;;;;;10.53;89.73;100703.31;5016717;28;20083;-78
2021/10/29 04:59:20;;;;;;;10.10;6.20;;;;;;;10.54;89.59;100710.31;5016036;28;20033;-79
2021/10/29 05:01:46;;;;;;;9.10;6.53;;;;;;;10.54;89.75;100715.56;5013937;28;20064;-79
2021/10/29 05:04:13;;;;;;;13.63;6.05;;;;;;;10.56;89.33;100714.72;5017075;28;20557;-79
2021/10/29 05:06:39;;;;;;;13.00;6.50;;;;;;;10.53;89.60;100698.91;5015924;28;20367;-78
2021/10/29 05:09:04;;;;;;;11.20;7.15;;;;;;;10.51;90.02;100710.28;5013824;28;20041;-77
2021/10/29 05:11:30;;;;;;;9.68;5.72;;;;;;;10.50;89.79;100706.78;5014716;28;20030;-77
2021/10/29 05:13:55;;;;;;;9.57;5.88;;;;;;;10.51;89.88;100700.63;5016285;28;20064;-78
2021/10/29 05:16:20;;;;;;;12.57;6.15;;;;;;;10.53;89.59;100698.03;5015358;28;20461;-78
2021/10/29 05:18:46;;;;;;;8.95;6.22;;;;;;;10.52;89.70;100701.53;5013749;28;20379;-77
2021/10/29 05:21:11;;;;;;;10.73;6.00;;;;;;;10.53;89.56;100700.66;5016678;28;20559;-79
2021/10/29 05:23:36;;;;;;;7.88;5.88;;;;;;;10.57;89.23;100698.09;5015578;28;20457;-78
2021/10/29 05:26:02;;;;;;;7.60;5.32;;;;;;;10.60;89.02;100694.63;5012843;28;20043;-78
2021/10/29 05:28:27;;;;;;;10.82;5.13;;;;;;;10.62;88.79;100695.50;5018663;28;20076;-78
2021/10/29 05:30:52;;;;;;;8.38;5.55;;;;;;;10.62;88.71;100690.25;5016047;28;20121;-77
2021/10/29 05:33:18;;;;;;;9.63;5.97;;;;;;;10.64;88.52;100691.16;5011791;28;20052;-77
2021/10/29 05:35:43;;;;;;;9.65;6.28;;;;;;;10.63;88.60;100692.03;5015484;28;20072;-79
2021/10/29 05:38:08;;;;;;;9.68;6.10;;;;;;;10.65;88.33;100697.31;5016375;28;20026;-78
2021/10/29 05:40:34;;;;;;;9.98;6.03;;;;;;;10.66;88.62;100702.59;5016369;28;20018;-81
2021/10/29 05:42:59;;;;;;;8.48;6.10;;;;;;;10.66;88.38;100697.31;5016610;28;20049;-79
2021/10/29 05:45:24;;;;;;;11.13;5.93;;;;;;;10.65;88.15;100690.31;5016267;28;20038;-78
2021/10/29 05:47:50;;;;;;;8.07;5.57;;;;;;;10.65;88.33;100687.69;5024130;28;20428;-78
2021/10/29 05:50:15;;;;;;;10.38;5.88;;;;;;;10.59;88.49;100687.59;5015426;28;20865;-78
2021/10/29 05:52:44;;;;;;;10.65;6.07;;;;;;;10.58;88.82;100684.09;5018154;28;20037;-79
2021/10/29 05:55:17;;;;;;;15.75;6.25;;;;;;;10.58;88.77;100680.53;5023316;28;20064;-79
2021/10/29 05:57:44;;;;;;;17.83;6.18;;;;;;;10.58;88.80;100677.91;5007413;28;20049;-79
2021/10/29 06:00:10;;;;;;;9.68;5.85;;;;;;;10.61;88.83;100676.22;5014299;28;20121;-78
2021/10/29 06:02:36;;;;;;;11.00;6.13;;;;;;;10.61;88.64;100670.09;5015093;28;20045;-80
2021/10/29 06:05:02;;;;;;;10.85;5.80;;;;;;;10.59;88.71;100672.69;5015964;28;20034;-81
2021/10/29 06:07:27;;;;;;;7.93;5.57;;;;;;;10.61;88.48;100676.22;5016296;28;20120;-80
2021/10/29 06:09:52;;;;;;;12.00;5.78;;;;;;;10.59;88.42;100677.06;5015680;28;20533;-78
2021/10/29 06:12:17;;;;;;;9.80;6.47;;;;;;;10.59;88.87;100674.44;5014953;28;20038;-80
2021/10/29 06:14:43;;;;;;;8.85;5.53;;;;;;;10.62;88.30;100678.00;5015379;28;20030;-79
2021/10/29 06:17:14;;;;;;;8.35;5.85;;;;;;;10.65;88.43;100674.53;5014021;28;20045;-80
2021/10/29 06:19:39;;;;;;;14.88;6.47;;;;;;;10.61;88.43;100678.84;5010201;28;20021;-79
2021/10/29 06:22:11;;;;;;;8.32;5.00;;;;;;;10.62;88.51;100670.09;5015683;28;20040;-80
2021/10/29 06:24:37;;;;;;;11.10;5.70;;;;;;;10.65;88.33;100669.25;5015911;28;20026;-78
2021/10/29 06:29:51;;;;;;;12.63;5.78;;;;;;;10.59;88.52;100677.06;5009282;28;20048;-79
2021/10/29 06:32:19;;;;;;;8.15;5.60;;;;;;;10.59;88.78;100682.31;5020260;28;20433;-78
2021/10/29 06:34:44;;;;;;;8.77;5.40;;;;;;;10.59;88.65;100682.31;5011927;28;20017;-78
2021/10/29 06:37:15;;;;;;;9.70;5.60;;;;;;;10.60;88.66;100689.34;5014649;28;20024;-80
2021/10/29 06:39:41;;;;;;;10.77;5.35;;;;;;;10.58;88.66;100686.72;5017553;28;20026;-80
2021/10/29 06:42:10;;;;;;;9.90;5.97;;;;;;;10.57;88.92;100674.41;5013305;28;20029;-77
2021/10/29 07:00:55;;;;;;;10.90;5.72;;;;;;;10.73;88.33;100667.63;5012315;28;20049;-79
2021/10/29 07:12:05;;;;;;;13.63;5.32;;;;;;;10.87;87.81;100657.25;5012748;28;19976;-79
2021/10/29 07:41:50;;;;;;;8.38;5.25;;;;;;;11.27;86.36;100635.75;5013847;28;20049;-79
2021/10/29 07:44:18;;;;;;;7.78;4.97;;;;;;;11.33;85.79;100640.19;5014206;28;20022;-79
2021/10/29 07:46:44;;;;;;;10.30;5.22;;;;;;;11.37;85.59;100636.75;5014629;28;20053;-78
2021/10/29 07:49:10;;;;;;;8.93;5.35;;;;;;;11.40;85.48;100640.28;5013414;28;20038;-78
2021/10/29 07:51:37;;;;;;;8.90;5.03;;;;;;;11.44;84.97;100628.03;5017640;28;20030;-78
2021/10/29 07:54:02;;;;;;;9.90;5.60;;;;;;;11.50;84.50;100621.94;5014455;28;20034;-79
2021/10/29 07:56:28;;;;;;;10.85;5.30;;;;;;;11.57;84.57;100621.09;5027594;28;20028;-76
2021/10/29 07:58:54;;;;;;;9.02;5.10;;;;;;;11.61;84.61;100621.16;5016969;28;20038;-81
2021/10/29 08:01:19;;;;;;;9.07;4.50;;;;;;;11.64;84.14;100613.28;5014779;28;20478;-80
2021/10/29 08:03:44;;;;;;;8.00;4.97;;;;;;;11.71;83.88;100623.88;5011263;28;20026;-78
2021/10/29 08:06:10;;;;;;;13.15;5.38;;;;;;;11.73;84.21;100616.84;5023402;28;20419;-80
2021/10/29 08:08:35;;;;;;;7.82;5.10;;;;;;;11.76;83.62;100615.13;5023040;28;20025;-81
2021/10/29 08:11:01;;;;;;;7.93;4.35;;;;;;;11.84;83.36;100616.94;5028584;28;20101;-79
2021/10/29 08:13:27;;;;;;;12.48;5.50;;;;;;;11.88;82.87;100608.19;5021773;28;20022;-79
2021/10/29 08:15:55;;;;;;;7.55;4.80;;;;;;;11.98;82.77;100605.66;5017969;28;20022;-79
2021/10/29 08:18:23;;;;;;;9.30;5.05;;;;;;;12.03;82.55;100613.63;5024260;28;20108;-81
2021/10/29 08:20:48;;;;;;;12.93;5.05;;;;;;;12.07;82.68;100610.13;5014674;28;20030;-78
2021/10/29 08:23:13;;;;;;;9.60;5.07;;;;;;;12.14;82.21;100605.78;5016416;28;20091;-79
2021/10/29 08:25:39;;;;;;;7.70;4.72;;;;;;;12.25;81.39;100601.44;5016484;28;20073;-78
2021/10/29 08:28:05;;;;;;;9.52;4.80;;;;;;;12.33;81.28;100604.13;5021430;28;20180;-81
2021/10/29 08:30:31;;;;;;;12.88;4.82;;;;;;;12.40;80.74;100592.72;5031273;28;20080;-80
2021/10/29 08:32:57;;;;;;;8.20;4.65;;;;;;;12.45;80.72;100588.34;5020950;28;20037;-80
2021/10/29 08:35:22;;;;;;;9.23;4.93;;;;;;;12.57;80.10;100584.84;5018112;28;20046;-80
2021/10/29 08:37:51;;;;;;;7.72;4.28;;;;;;;12.65;80.33;100582.25;5032833;28;20458;-80
2021/10/29 08:40:17;;;;;;;8.73;4.97;;;;;;;12.72;79.76;100584.03;5021311;28;20022;-79
2021/10/29 08:42:44;;;;;;;9.75;5.05;;;;;;;12.83;79.21;100581.44;5025009;28;20528;-78
2021/10/29 08:45:10;;;;;;;9.00;4.90;;;;;;;12.95;78.29;100580.59;5021272;28;20032;-80
2021/10/29 08:47:38;;;;;;;6.55;4.28;;;;;;;13.09;77.81;100568.31;5014096;28;20367;-79
2021/10/29 08:50:10;;;;;;;8.02;4.68;;;;;;;13.30;77.34;100571.84;5016239;28;20033;-79
2021/10/29 08:52:36;;;;;;;8.63;4.40;;;;;;;13.50;76.46;100579.81;5021106;28;20037;-78
2021/10/29 08:55:06;;;;;;;8.13;4.50;;;;;;;13.74;75.48;100565.72;5020619;28;20029;-80
2021/10/29 08:57:32;;;;;;;4.63;3.92;;;;;;;13.97;74.64;100555.09;5023340;28;21685;-79
2021/10/29 08:59:58;;;;;;;9.38;4.78;;;;;;;14.20;73.75;100561.22;5026737;28;20026;-78
2021/10/29 09:32:44;;;;;;;6.45;3.80;;;;;;;15.74;66.49;100528.47;5023830;28;20077;-80
2021/10/29 09:35:12;;;;;;;8.75;4.20;;;;;;;15.91;66.42;100531.00;5014844;28;20030;-80
2021/10/29 09:37:59;;;;;;;8.25;4.00;;;;;;;16.08;64.97;100528.16;5024857;28;20101;-78
2021/10/29 09:40:36;;;;;;;8.27;4.10;;;;;;;16.21;64.53;100522.69;5005496;28;20065;-80
2021/10/29 09:43:14;;;;;;;11.38;4.13;;;;;;;16.28;65.13;100527.06;5024548;28;20017;-79
2021/10/29 09:45:48;;;;;;;5.13;3.67;;;;;;;16.32;63.76;100511.06;5033662;28;20044;-80
2021/10/29 09:48:19;;;;;;;7.95;3.67;;;;;;;16.45;63.58;100509.09;5024926;28;20079;-80
2021/10/29 09:50:50;;;;;;;5.47;3.53;;;;;;;16.54;63.43;100512.56;5023179;28;20041;-79
2021/10/29 09:53:39;;;;;;;8.05;3.63;;;;;;;16.79;63.00;100498.03;5031862;28;20024;-80
2021/10/29 09:56:13;;;;;;;10.30;4.90;;;;;;;17.03;61.72;100503.91;5022115;28;20034;-79
2021/10/29 09:58:43;;;;;;;10.93;3.83;;;;;;;17.21;60.91;100496.53;5025624;28;20462;-79
2021/10/29 10:01:09;;;;;;;6.25;3.58;;;;;;;17.17;61.07;100496.59;5021021;28;20022;-78
2021/10/29 10:03:37;;;;;;;5.70;3.70;;;;;;;17.40;60.06;100492.66;5015974;28;20037;-79
2021/10/29 10:06:04;;;;;;;8.73;3.60;;;;;;;17.66;59.80;100501.94;5016195;28;20029;-79
2021/10/29 10:08:32;;;;;;;9.32;3.42;;;;;;;17.81;59.16;100488.38;5006578;28;20036;-79
2021/10/29 10:10:59;;;;;;;6.80;3.55;;;;;;;18.19;57.87;100469.88;5027213;28;20037;-80
2021/10/29 10:13:25;;;;;;;8.25;3.40;;;;;;;18.38;56.96;100465.06;5019974;28;20018;-79
2021/10/29 10:15:54;;;;;;;6.65;3.20;;;;;;;18.48;55.86;100450.63;5019535;28;20026;-79
2021/10/29 10:18:20;;;;;;;5.82;3.08;;;;;;;18.71;55.85;100459.88;5032205;28;20065;-79
2021/10/29 10:20:48;;;;;;;10.80;4.05;;;;;;;18.95;55.60;100452.22;5015351;28;20065;-79
2021/10/29 10:23:20;;;;;;;7.25;3.20;;;;;;;19.17;54.35;100466.78;5015575;28;20026;-80
2021/10/29 10:48:37;;;;;;;7.38;3.50;;;;;;;19.92;50.61;100387.44;5015956;28;20117;-78
2021/10/29 11:10:41;;;;;;;5.95;3.13;;;;;;;21.45;46.48;100391.38;5006489;28;20032;-74
2021/10/29 11:13:09;;;;;;;6.80;3.20;;;;;;;21.41;47.05;100379.03;5023307;28;20054;-75
2021/10/29 11:15:35;;;;;;;5.40;3.00;;;;;;;21.59;45.88;100382.88;5015507;28;20037;-76
2021/10/29 11:18:27;;;;;;;9.60;2.95;;;;;;;21.65;46.90;100385.34;5023908;28;20032;-77
2021/10/29 11:20:54;;;;;;;6.75;2.90;;;;;;;21.75;46.26;100380.50;5029646;28;20021;-79
2021/10/29 11:23:32;;;;;;;7.78;3.20;;;;;;;21.75;45.19;100382.31;5018251;28;20026;-78
2021/10/29 11:26:03;;;;;;;8.25;3.42;;;;;;;21.81;45.32;100388.31;5013745;28;20045;-79
2021/10/29 11:28:37;;;;;;;7.10;3.05;;;;;;;21.82;45.54;100379.31;5014925;28;20042;-79
2021/10/29 11:31:05;;;;;;;7.05;3.45;;;;;;;22.15;45.08;100365.59;5020766;28;20026;-77
2021/10/29 11:33:31;;;;;;;6.90;3.20;;;;;;;22.14;44.80;100366.50;5016608;28;20018;-77
2021/10/29 11:36:09;;;;;;;9.23;3.00;;;;;;;22.17;44.84;100358.34;5016425;28;20029;-78
2021/10/29 11:38:37;;;;;;;7.88;2.97;;;;;;;21.96;44.85;100357.41;5017105;28;20037;-77
2021/10/29 11:41:06;;;;;;;5.00;2.83;;;;;;;22.04;44.81;100357.06;5022806;28;20025;-78
2021/10/29 11:43:32;;;;;;;5.65;2.97;;;;;;;21.89;45.07;100338.00;5028477;28;20056;-78
2021/10/29 11:46:00;;;;;;;5.10;2.85;;;;;;;22.16;44.60;100340.50;5014434;28;20025;-77
2021/10/29 11:48:27;;;;;;;5.57;2.83;;;;;;;22.05;44.50;100348.97;5013312;28;20068;-77
2021/10/29 11:51:23;;;;;;;8.65;2.75;;;;;;;22.03;44.91;100339.25;5015212;28;20025;-78
2021/10/29 11:54:00;;;;;;;9.43;3.20;;;;;;;22.14;44.32;100346.88;5010119;28;20065;-78
2021/10/29 11:59:24;;;;;;;8.65;3.30;;;;;;;21.72;45.52;100316.34;5017109;28;20041;-78
2021/10/29 12:07:19;;;;;;;6.38;2.80;;;;;;;22.66;43.26;100306.38;5015867;28;20108;-77
2021/10/29 12:10:02;;;;;;;3.97;2.65;;;;;;;22.93;43.34;100322.22;5014266;28;20026;-78
2021/10/29 12:12:29;;;;;;;7.03;3.25;;;;;;;23.20;42.19;100318.34;5007952;28;20112;-77
2021/10/29 12:15:00;;;;;;;8.05;2.55;;;;;;;23.08;42.26;100302.75;5017049;28;20109;-76
2021/10/29 12:17:32;;;;;;;9.10;3.15;;;;;;;23.12;42.08;100287.41;5018545;28;20037;-76
2021/10/29 12:20:04;;;;;;;6.93;3.40;;;;;;;22.85;42.95;100296.59;5025439;28;20056;-77
2021/10/29 12:25:36;;;;;;;8.07;3.15;;;;;;;23.00;43.19;100296.88;5012916;28;20104;-77
2021/10/29 12:30:40;;;;;;;8.70;3.20;;;;;;;23.00;42.55;100291.50;5018412;28;20128;-77
2021/10/29 13:01:56;;;;;;;4.93;2.72;;;;;;;19.89;51.79;100257.53;4994977;28;20054;-77
2021/10/29 13:04:33;;;;;;;5.85;2.97;;;;;;;19.46;52.57;100259.69;5004137;28;20034;-75
2021/10/29 13:07:02;;;;;;;6.30;3.15;;;;;;;19.00;54.55;100263.69;5013114;28;20041;-76
2021/10/29 13:09:28;;;;;;;9.90;3.85;;;;;;;18.83;55.50;100272.97;5015109;28;20030;-76
2021/10/29 13:11:56;;;;;;;6.25;2.78;;;;;;;18.53;56.61;100264.88;5015253;28;20030;-77
2021/10/29 13:14:31;;;;;;;9.20;3.17;;;;;;;18.62;56.67;100268.22;5017301;28;20432;-76
2021/10/29 13:16:57;;;;;;;8.40;3.90;;;;;;;18.36;57.78;100269.75;5019332;28;20018;-78
2021/10/29 13:22:49;;;;;;;7.03;3.30;;;;;;;18.13;58.13;100276.50;5015972;28;20045;-76
2021/10/29 13:38:04;;;;;;;8.73;3.03;;;;;;;17.89;60.14;100293.88;5021414;28;20041;-78
2021/10/29 13:57:07;;;;;;;7.13;3.08;;;;;;;17.35;62.55;100308.38;5009970;28;20037;-77
2021/10/29 13:59:45;;;;;;;6.25;3.10;;;;;;;17.24;62.35;100287.31;5028698;28;20041;-79
2021/10/29 14:29:41;;;;;;;14.13;4.18;;;;;;;16.17;73.14;100366.13;5017728;28;20060;-80
2021/10/29 14:34:42;;;;;;;8.27;4.03;;;;;;;15.65;79.06;100380.03;5017647;28;20081;-78
2021/10/29 14:40:27;;;;;;;7.40;3.40;;;;;;;15.33;80.91;100368.91;5017164;28;20516;-77
2021/10/29 14:45:06;;;;;;;9.38;3.97;;;;;;;15.18;82.84;100380.53;5017068;28;20532;-78
2021/10/29 14:47:54;;;;;;;9.60;4.43;;;;;;;15.17;83.07;100370.81;5016780;28;20121;-78
2021/10/29 15:29:31;;;;;;;5.50;3.00;;;;;;;15.31;80.37;100399.84;5017855;28;20653;-78
2021/10/29 15:45:36;;;;;;;4.10;2.70;;;;;;;15.14;81.06;100397.34;5023141;28;20036;-78
2021/10/29 15:48:09;;;;;;;6.57;2.88;;;;;;;15.14;80.93;100402.66;5018812;28;20060;-80
2021/10/29 15:50:36;;;;;;;6.47;2.72;;;;;;;15.06;80.99;100391.25;5011857;28;20022;-78
2021/10/29 15:53:07;;;;;;;4.40;2.22;;;;;;;14.97;80.77;100380.72;5008729;28;20411;-76
2021/10/29 15:55:58;;;;;;;4.10;2.70;;;;;;;14.97;81.24;100393.97;5015744;28;20477;-77
2021/10/29 16:03:53;;;;;;;3.25;1.85;;;;;;;14.95;81.12;100420.50;5017756;28;20016;-78
2021/10/29 16:17:14;;;;;;;4.07;2.10;;;;;;;14.77;82.17;100418.88;5021055;28;20107;-78
2021/10/29 16:19:43;;;;;;;2.97;2.10;;;;;;;14.74;81.97;100421.53;5016771;28;20050;-78
2021/10/29 16:22:16;;;;;;;4.88;2.45;;;;;;;14.71;82.39;100428.63;5001709;28;20030;-78
2021/10/29 16:24:49;;;;;;;6.07;2.25;;;;;;;14.66;82.79;100410.13;4997269;28;20034;-79
2021/10/29 16:27:15;;;;;;;5.82;2.13;;;;;;;14.58;83.10;100451.63;5013980;28;20044;-78
2021/10/29 16:29:43;;;;;;;7.85;2.50;;;;;;;14.62;83.04;100443.66;5005011;28;20029;-78
2021/10/29 16:32:16;;;;;;;4.60;2.30;;;;;;;14.55;83.17;100435.75;4999536;28;20026;-79
2021/10/29 16:34:42;;;;;;;6.67;2.20;;;;;;;14.55;83.24;100435.75;5018017;28;20053;-78
2021/10/29 16:37:07;;;;;;;2.42;2.08;;;;;;;14.47;83.69;100435.81;5003733;28;20053;-80